createdAt,value
2022-07-29T00:01:51.772Z,18.16
2022-07-29T00:04:57.353Z,18.09
2022-07-29T00:08:09.338Z,18.03
2022-07-29T00:11:15.379Z,18.00
2022-07-29T00:14:21.852Z,17.97
2022-07-29T00:17:29.637Z,17.92
2022-07-29T00:20:34.989Z,17.88
2022-07-29T00:23:41.765Z,17.82
2022-07-29T00:26:47.112Z,17.76
2022-07-29T00:29:54.806Z,17.71
2022-07-29T00:33:02.297Z,17.69
2022-07-29T00:36:07.640Z,17.69
2022-07-29T00:39:15.145Z,17.68
2022-07-29T00:42:21.798Z,17.69
2022-07-29T00:45:30.461Z,17.66
2022-07-29T00:48:35.984Z,17.65
2022-07-29T00:51:43.710Z,17.61
2022-07-29T00:54:51.794Z,17.61
2022-07-29T00:57:58.687Z,17.58
2022-07-29T01:01:04.798Z,17.54
2022-07-29T01:04:11.112Z,17.49
2022-07-29T01:07:20.346Z,17.47
2022-07-29T01:10:27.260Z,17.43
2022-07-29T01:13:35.004Z,17.36
2022-07-29T01:16:45.180Z,17.33
2022-07-29T01:20:31.923Z,17.28
2022-07-29T01:23:57.622Z,17.21
2022-07-29T01:27:15.691Z,17.14
2022-07-29T01:30:22.351Z,17.07
2022-07-29T01:33:49.282Z,16.99
2022-07-29T01:37:12.453Z,16.93
2022-07-29T01:40:19.329Z,16.83
2022-07-29T01:43:29.480Z,16.77
2022-07-29T01:46:54.021Z,16.73
2022-07-29T01:50:03.010Z,16.68
2022-07-29T01:53:14.017Z,16.64
2022-07-29T01:56:21.895Z,16.61
2022-07-29T01:59:28.403Z,16.57
2022-07-29T02:02:35.844Z,16.53
2022-07-29T02:05:42.231Z,16.48
2022-07-29T02:08:46.842Z,16.42
2022-07-29T02:11:54.144Z,16.40
2022-07-29T02:15:06.443Z,16.40
2022-07-29T02:18:32.389Z,16.40
2022-07-29T02:21:40.795Z,16.42
2022-07-29T02:24:48.282Z,16.39
2022-07-29T02:27:53.623Z,16.40
2022-07-29T02:31:00.185Z,16.40
2022-07-29T02:34:11.084Z,16.40
2022-07-29T02:37:16.442Z,16.39
2022-07-29T02:40:28.630Z,16.37
2022-07-29T02:43:34.900Z,16.35
2022-07-29T02:46:47.026Z,16.32
2022-07-29T02:50:04.343Z,16.30
2022-07-29T02:53:26.572Z,16.29
2022-07-29T02:56:32.955Z,16.31
2022-07-29T02:59:42.270Z,16.34
2022-07-29T03:02:50.284Z,16.39
2022-07-29T03:05:56.545Z,16.46
2022-07-29T03:09:02.496Z,16.50
2022-07-29T03:12:09.942Z,16.53
2022-07-29T03:15:18.514Z,16.54
2022-07-29T03:18:26.319Z,16.58
2022-07-29T03:21:32.281Z,16.64
2022-07-29T03:24:49.603Z,16.70
2022-07-29T03:27:55.665Z,16.79
2022-07-29T03:31:01.346Z,16.89
2022-07-29T03:34:08.726Z,16.97
2022-07-29T03:37:14.369Z,17.06
2022-07-29T03:40:23.768Z,17.16
2022-07-29T03:43:33.787Z,17.25
2022-07-29T03:46:41.084Z,17.34
2022-07-29T03:49:51.610Z,17.42
2022-07-29T03:52:57.463Z,17.52
2022-07-29T03:56:05.974Z,17.61
2022-07-29T03:59:13.274Z,17.70
2022-07-29T04:02:24.463Z,17.81
2022-07-29T04:05:30.008Z,17.91
2022-07-29T04:08:38.113Z,18.02
2022-07-29T04:12:02.072Z,18.11
2022-07-29T04:14:54.120Z,18.18
2022-07-29T04:18:05.637Z,18.25
2022-07-29T04:21:14.563Z,18.33
2022-07-29T04:24:21.423Z,18.39
2022-07-29T04:27:29.454Z,18.47
2022-07-29T04:30:35.508Z,18.55
2022-07-29T04:33:43.624Z,18.63
2022-07-29T04:36:49.762Z,18.67
2022-07-29T04:39:55.046Z,18.72
2022-07-29T04:43:01.495Z,18.75
2022-07-29T04:46:09.299Z,18.82
2022-07-29T04:49:16.682Z,18.90
2022-07-29T04:52:23.048Z,18.99
2022-07-29T04:55:33.740Z,19.07
2022-07-29T04:58:41.306Z,19.17
2022-07-29T05:01:48.040Z,19.29
2022-07-29T05:05:00.794Z,19.37
2022-07-29T05:08:09.028Z,19.47
2022-07-29T05:11:21.767Z,19.57
2022-07-29T05:14:26.792Z,19.68
2022-07-29T05:17:42.291Z,19.78
2022-07-29T05:20:49.940Z,19.89
2022-07-29T05:24:00.264Z,19.97
2022-07-29T05:27:08.285Z,20.08
2022-07-29T05:30:14.522Z,20.20
2022-07-29T05:33:35.633Z,20.32
2022-07-29T05:36:29.860Z,20.43
2022-07-29T05:39:47.483Z,20.55
2022-07-29T05:42:49.906Z,20.66
2022-07-29T05:45:57.912Z,20.77
2022-07-29T05:49:12.017Z,20.87
2022-07-29T05:52:23.099Z,20.98
2022-07-29T05:55:31.718Z,21.07
2022-07-29T05:58:42.272Z,21.16
2022-07-29T06:01:49.714Z,21.23
2022-07-29T06:04:59.209Z,21.29
2022-07-29T06:08:10.072Z,21.40
2022-07-29T06:11:20.773Z,21.48
2022-07-29T06:14:28.027Z,21.56
2022-07-29T06:17:37.563Z,21.65
2022-07-29T06:20:50.603Z,21.75
2022-07-29T06:23:59.375Z,21.83
2022-07-29T06:27:05.675Z,21.91
2022-07-29T06:30:19.583Z,21.99
2022-07-29T06:33:47.807Z,22.07
2022-07-29T06:37:15.804Z,22.13
2022-07-29T06:40:44.181Z,22.19
2022-07-29T06:43:56.873Z,22.25
2022-07-29T06:47:09.120Z,22.30
2022-07-29T06:50:23.665Z,22.39
2022-07-29T06:53:35.161Z,22.45
2022-07-29T06:56:45.667Z,22.53
2022-07-29T06:59:55.350Z,22.60
2022-07-29T07:03:09.819Z,22.67
2022-07-29T07:06:28.301Z,22.73
2022-07-29T07:09:40.653Z,22.79
2022-07-29T07:13:01.204Z,22.88
2022-07-29T07:16:10.561Z,22.99
2022-07-29T07:19:40.675Z,23.10
2022-07-29T07:22:53.463Z,23.19
2022-07-29T07:26:07.224Z,23.34
2022-07-29T07:29:16.229Z,23.41
2022-07-29T07:32:45.536Z,23.44
2022-07-29T07:35:52.365Z,23.38
2022-07-29T07:38:58.814Z,23.38
2022-07-29T07:42:05.261Z,23.38
2022-07-29T07:45:18.084Z,23.38
2022-07-29T07:48:37.859Z,23.40
2022-07-29T07:51:43.990Z,23.43
2022-07-29T07:54:56.332Z,23.46
2022-07-29T07:58:03.598Z,23.49
2022-07-29T08:01:11.934Z,23.57
2022-07-29T08:04:27.564Z,23.63
2022-07-29T08:07:33.874Z,23.64
2022-07-29T08:11:10.056Z,23.70
2022-07-29T08:14:21.642Z,23.72
2022-07-29T08:17:31.473Z,23.78
2022-07-29T08:20:43.966Z,23.81
2022-07-29T08:24:07.430Z,23.81
2022-07-29T08:27:40.735Z,23.84
2022-07-29T08:30:25.888Z,23.88
2022-07-29T08:33:36.008Z,23.92
2022-07-29T08:36:46.336Z,23.99
2022-07-29T08:39:57.978Z,24.08
2022-07-29T08:46:50.783Z,24.21
2022-07-29T08:49:59.851Z,24.27
2022-07-29T08:53:10.300Z,24.35
2022-07-29T08:56:17.010Z,24.39
2022-07-29T08:59:23.322Z,24.46
2022-07-29T09:02:40.047Z,24.44
2022-07-29T09:05:50.885Z,24.45
2022-07-29T09:08:59.796Z,24.50
2022-07-29T09:12:07.231Z,24.54
2022-07-29T09:15:13.524Z,24.58
2022-07-29T09:18:31.027Z,24.61
2022-07-29T09:21:51.007Z,24.69
2022-07-29T09:25:03.224Z,24.78
2022-07-29T09:28:13.826Z,24.88
2022-07-29T09:31:21.431Z,24.97
2022-07-29T09:34:27.924Z,25.05
2022-07-29T09:41:33.384Z,25.10
2022-07-29T09:44:29.323Z,25.14
2022-07-29T09:47:44.627Z,25.18
2022-07-29T09:51:02.665Z,25.23
2022-07-29T09:54:14.066Z,25.11
2022-07-29T09:57:27.325Z,25.10
2022-07-29T10:00:35.861Z,25.19
2022-07-29T10:03:45.379Z,25.34
2022-07-29T10:07:20.623Z,25.49
2022-07-29T10:10:44.020Z,25.60
2022-07-29T10:13:49.651Z,25.66
2022-07-29T10:16:55.610Z,25.71
2022-07-29T10:20:06.014Z,25.72
2022-07-29T10:23:14.143Z,25.74
2022-07-29T10:26:22.874Z,25.80
2022-07-29T10:29:28.820Z,25.82
2022-07-29T10:32:55.121Z,25.82
2022-07-29T10:36:17.003Z,25.87
2022-07-29T10:39:49.805Z,25.97
2022-07-29T10:42:57.341Z,26.03
2022-07-29T10:46:15.070Z,26.06
2022-07-29T10:49:38.092Z,25.98
2022-07-29T10:53:09.059Z,26.04
2022-07-29T10:56:19.817Z,26.20
2022-07-29T10:59:39.067Z,26.30
2022-07-29T11:02:57.834Z,26.31
2022-07-29T11:06:11.052Z,26.35
2022-07-29T11:09:37.473Z,26.29
2022-07-29T11:12:59.421Z,26.17
2022-07-29T11:16:16.183Z,26.01
2022-07-29T11:19:36.964Z,26.19
2022-07-29T11:22:50.233Z,26.38
2022-07-29T11:25:58.832Z,26.56
2022-07-29T11:29:40.008Z,26.68
2022-07-29T11:33:01.998Z,26.79
2022-07-29T11:36:32.032Z,26.79
2022-07-29T11:39:51.876Z,26.72
2022-07-29T11:46:27.523Z,26.62
2022-07-29T11:49:44.509Z,26.61
2022-07-29T11:53:00.962Z,26.65
2022-07-29T11:56:17.072Z,26.71
2022-07-29T11:59:22.406Z,26.81
2022-07-29T12:02:37.461Z,26.93
2022-07-29T12:05:57.441Z,26.95
2022-07-29T12:09:05.800Z,26.99
2022-07-29T12:12:16.206Z,27.02
2022-07-29T12:15:46.311Z,27.08
2022-07-29T12:18:42.180Z,27.03
2022-07-29T12:22:08.328Z,26.95
2022-07-29T12:25:38.262Z,26.88
2022-07-29T12:28:32.611Z,26.82
2022-07-29T12:31:48.422Z,26.86
2022-07-29T12:34:55.464Z,26.89
2022-07-29T12:38:01.929Z,26.96
2022-07-29T12:41:06.497Z,27.01
2022-07-29T12:44:12.978Z,27.04
2022-07-29T12:47:22.572Z,27.08
2022-07-29T12:50:36.128Z,27.10
2022-07-29T12:53:45.296Z,27.11
2022-07-29T12:57:05.337Z,27.18
2022-07-29T13:00:22.122Z,27.24
2022-07-29T13:03:28.976Z,27.24
2022-07-29T13:07:00.846Z,27.27
2022-07-29T13:10:10.150Z,27.19
2022-07-29T13:13:28.192Z,27.11
2022-07-29T13:16:33.519Z,27.08
2022-07-29T13:19:53.310Z,27.01
2022-07-29T13:23:01.964Z,26.98
2022-07-29T13:26:13.022Z,26.96
2022-07-29T13:29:20.133Z,26.99
2022-07-29T13:32:36.354Z,27.04
2022-07-29T13:35:43.191Z,27.06
2022-07-29T13:38:50.493Z,27.09
2022-07-29T13:41:58.951Z,27.13
2022-07-29T13:45:10.510Z,27.17
2022-07-29T13:48:20.752Z,27.17
2022-07-29T13:51:28.161Z,27.15
2022-07-29T13:54:38.797Z,27.11
2022-07-29T13:57:43.793Z,27.08
2022-07-29T14:00:49.984Z,27.08
2022-07-29T14:03:56.614Z,26.98
2022-07-29T14:07:05.691Z,26.90
2022-07-29T14:10:18.467Z,26.92
2022-07-29T14:13:26.440Z,26.95
2022-07-29T14:16:32.470Z,27.01
2022-07-29T14:19:43.014Z,27.05
2022-07-29T14:22:54.682Z,27.09
2022-07-29T14:26:03.827Z,27.13
2022-07-29T14:29:13.136Z,27.10
2022-07-29T14:32:23.344Z,27.05
2022-07-29T14:35:31.327Z,27.04
2022-07-29T14:38:38.914Z,27.06
2022-07-29T14:41:47.170Z,27.18
2022-07-29T14:44:58.368Z,27.24
2022-07-29T14:48:14.118Z,27.26
2022-07-29T14:51:23.879Z,27.29
2022-07-29T14:54:35.812Z,27.30
2022-07-29T14:57:42.287Z,27.27
2022-07-29T15:00:49.829Z,27.19
2022-07-29T15:04:01.221Z,27.16
2022-07-29T15:07:07.190Z,27.12
2022-07-29T15:10:17.471Z,27.11
2022-07-29T15:13:24.024Z,27.15
2022-07-29T15:16:32.321Z,27.22
2022-07-29T15:19:37.972Z,27.28
2022-07-29T15:22:45.982Z,27.31
2022-07-29T15:25:53.150Z,27.31
2022-07-29T15:29:05.247Z,27.33
2022-07-29T15:32:17.647Z,27.31
2022-07-29T15:35:30.018Z,27.21
2022-07-29T15:38:41.868Z,27.14
2022-07-29T15:41:47.694Z,27.22
2022-07-29T15:44:54.120Z,27.14
2022-07-29T15:48:02.731Z,27.04
2022-07-29T15:51:11.158Z,27.03
2022-07-29T15:54:18.282Z,27.21
2022-07-29T15:57:31.673Z,27.17
2022-07-29T16:00:37.856Z,27.06
2022-07-29T16:03:46.328Z,26.94
2022-07-29T16:06:59.582Z,26.87
2022-07-29T16:10:07.194Z,26.77
2022-07-29T16:13:17.872Z,26.70
2022-07-29T16:16:25.742Z,26.57
2022-07-29T16:19:37.586Z,26.44
2022-07-29T16:22:49.437Z,26.46
2022-07-29T16:26:00.774Z,26.83
2022-07-29T16:29:08.427Z,26.77
2022-07-29T16:32:15.822Z,26.53
2022-07-29T16:35:25.352Z,26.27
2022-07-29T16:38:32.457Z,26.08
2022-07-29T16:41:38.651Z,25.87
2022-07-29T16:44:46.432Z,25.72
2022-07-29T16:47:57.204Z,25.58
2022-07-29T16:51:01.792Z,25.45
2022-07-29T16:54:11.140Z,25.30
2022-07-29T16:57:19.139Z,25.17
2022-07-29T17:00:28.445Z,25.05
2022-07-29T17:03:34.644Z,24.96
2022-07-29T17:06:43.014Z,24.82
2022-07-29T17:09:50.535Z,24.68
2022-07-29T17:12:56.026Z,24.58
2022-07-29T17:16:01.908Z,24.47
2022-07-29T17:19:12.187Z,24.35
2022-07-29T17:22:21.123Z,24.25
2022-07-29T17:25:27.992Z,24.12
2022-07-29T17:28:33.084Z,24.00
2022-07-29T17:31:39.505Z,23.86
2022-07-29T17:34:47.225Z,23.73
2022-07-29T17:37:54.373Z,23.57
2022-07-29T17:41:01.903Z,23.44
2022-07-29T17:44:09.534Z,23.33
2022-07-29T17:47:15.837Z,23.21
2022-07-29T17:50:23.920Z,23.11
2022-07-29T17:53:30.783Z,23.00
2022-07-29T17:56:38.295Z,22.87
2022-07-29T17:59:44.132Z,22.70
2022-07-29T18:02:50.654Z,22.56
2022-07-29T18:06:03.406Z,22.46
2022-07-29T18:09:10.395Z,22.37
2022-07-29T18:12:17.474Z,22.26
2022-07-29T18:15:25.074Z,22.15
2022-07-29T18:18:34.002Z,22.07
2022-07-29T18:21:51.234Z,21.97
2022-07-29T18:24:51.553Z,21.86
2022-07-29T18:28:00.539Z,21.74
2022-07-29T18:31:04.455Z,21.64
2022-07-29T18:34:10.159Z,21.52
2022-07-29T18:37:17.114Z,21.38
2022-07-29T18:40:24.180Z,21.27
2022-07-29T18:43:33.414Z,21.17
2022-07-29T18:46:39.470Z,21.08
2022-07-29T18:49:48.033Z,20.98
2022-07-29T18:52:56.239Z,20.88
2022-07-29T18:56:04.288Z,20.77
2022-07-29T18:59:13.990Z,20.69
2022-07-29T19:02:19.260Z,20.60
2022-07-29T19:05:26.442Z,20.56
2022-07-29T19:08:32.439Z,20.52
2022-07-29T19:11:37.923Z,20.48
2022-07-29T19:14:44.741Z,20.46
2022-07-29T19:17:53.444Z,20.43
2022-07-29T19:21:00.720Z,20.39
2022-07-29T19:24:08.492Z,20.34
2022-07-29T19:27:14.065Z,20.29
2022-07-29T19:30:21.805Z,20.23
2022-07-29T19:33:27.842Z,20.17
2022-07-29T19:36:33.825Z,20.11
2022-07-29T19:39:41.144Z,20.02
2022-07-29T19:42:48.235Z,19.95
2022-07-29T19:45:54.598Z,19.89
2022-07-29T19:49:01.961Z,19.81
2022-07-29T19:52:07.607Z,19.72
2022-07-29T19:55:14.516Z,19.63
2022-07-29T19:58:22.411Z,19.55
2022-07-29T20:01:31.736Z,19.47
2022-07-29T20:04:40.195Z,19.39
2022-07-29T20:07:45.858Z,19.31
2022-07-29T20:10:51.353Z,19.24
2022-07-29T20:13:57.342Z,19.19
2022-07-29T20:17:03.114Z,19.12
2022-07-29T20:20:12.601Z,19.05
2022-07-29T20:23:19.164Z,18.98
2022-07-29T20:26:26.841Z,18.92
2022-07-29T20:29:34.109Z,18.86
2022-07-29T20:32:40.412Z,18.81
2022-07-29T20:35:46.462Z,18.74
2022-07-29T20:38:55.217Z,18.68
2022-07-29T20:42:04.520Z,18.65
2022-07-29T20:45:10.806Z,18.60
2022-07-29T20:48:21.567Z,18.54
2022-07-29T20:51:28.145Z,18.46
2022-07-29T20:54:36.085Z,18.37
2022-07-29T20:57:41.903Z,18.31
2022-07-29T21:00:47.969Z,18.28
2022-07-29T21:03:54.130Z,18.24
2022-07-29T21:07:01.014Z,18.22
2022-07-29T21:10:07.609Z,18.16
2022-07-29T21:13:14.487Z,18.10
2022-07-29T21:16:26.432Z,18.06
2022-07-29T21:19:33.254Z,18.03
2022-07-29T21:22:39.215Z,18.02
2022-07-29T21:25:45.680Z,17.97
2022-07-29T21:28:53.274Z,17.92
2022-07-29T21:32:00.665Z,17.86
2022-07-29T21:35:18.312Z,17.82
2022-07-29T21:38:15.972Z,17.75
2022-07-29T21:41:23.162Z,17.73
2022-07-29T21:44:29.828Z,17.75
2022-07-29T21:47:29.433Z,17.76
2022-07-29T21:50:35.816Z,17.78
2022-07-29T21:53:42.807Z,17.78
2022-07-29T21:56:51.088Z,17.76
2022-07-29T22:00:02.465Z,17.74
2022-07-29T22:03:09.987Z,17.71
2022-07-29T22:06:17.833Z,17.67
2022-07-29T22:09:25.704Z,17.63
2022-07-29T22:12:31.034Z,17.59
2022-07-29T22:15:38.222Z,17.53
2022-07-29T22:18:44.799Z,17.49
2022-07-29T22:21:53.926Z,17.45
2022-07-29T22:24:59.989Z,17.40
2022-07-29T22:28:06.975Z,17.37
2022-07-29T22:31:13.881Z,17.36
2022-07-29T22:34:21.862Z,17.34
2022-07-29T22:37:27.781Z,17.32
2022-07-29T22:40:35.116Z,17.32
2022-07-29T22:43:40.447Z,17.31
2022-07-29T22:46:48.769Z,17.31
2022-07-29T22:49:57.487Z,17.31
2022-07-29T22:53:04.883Z,17.31
2022-07-29T22:56:12.673Z,17.29
2022-07-29T22:59:19.043Z,17.26
2022-07-29T23:02:25.707Z,17.21
2022-07-29T23:05:32.789Z,17.16
2022-07-29T23:08:39.381Z,17.08
2022-07-29T23:11:47.291Z,17.04
2022-07-29T23:14:53.796Z,16.97
2022-07-29T23:18:01.663Z,16.91
2022-07-29T23:21:09.050Z,16.87
2022-07-29T23:24:15.331Z,16.83
2022-07-29T23:27:22.515Z,16.79
2022-07-29T23:30:30.466Z,16.73
2022-07-29T23:33:35.456Z,16.71
2022-07-29T23:36:42.507Z,16.70
2022-07-29T23:39:48.402Z,16.68
2022-07-29T23:42:54.750Z,16.66
2022-07-29T23:46:02.640Z,16.64
2022-07-29T23:49:09.166Z,16.61
2022-07-29T23:52:16.835Z,16.56
2022-07-29T23:55:37.780Z,16.51
2022-07-29T23:58:38.067Z,16.47
